Time;durP1;ratioP1;P1;durP2;ratioP2;P2;SDS_P1;SDS_P2;PMS_P1;PMS_P2;Temp;Humidity;BMP_temperature;BMP_pressure;BME280_temperature;BME280_humidity;BME280_pressure;Samples;Min_cycle;Max_cycle;Signal;HPM_P1;HPM_P2
2022/04/19 00:00:00;;;;;;;;;;;;;;;;;;5073427;28;19962;-90
2022/04/19 00:02:25;;;;;;;;;;;;;;;;;;5073489;28;19923;-91
2022/04/19 00:04:51;;;;;;;;;;;;;;;;;;5058190;28;19913;-91
2022/04/19 00:07:16;;;;;;;;;;;;;;;;;;5053358;28;20265;-90
2022/04/19 00:09:41;;;;;;;;;;;;;;;;;;5053317;28;19909;-91
2022/04/19 00:12:06;;;;;;;;;;;;;;;;;;5053291;28;20365;-90
2022/04/19 00:14:34;;;;;;;;;;;;;;;;;;5053300;28;19909;-91
2022/04/19 00:16:59;;;;;;;;;;;;;;;;;;5069303;28;19913;-91
2022/04/19 00:19:25;;;;;;;;;;;;;;;;;;5053082;28;19920;-91
2022/04/19 00:21:50;;;;;;;;;;;;;;;;;;5053274;28;19923;-91
2022/04/19 00:24:15;;;;;;;;;;;;;;;;;;5053280;28;19909;-91
2022/04/19 00:26:41;;;;;;;;;;;;;;;;;;5055620;28;19943;-90
2022/04/19 00:29:06;;;;;;;;;;;;;;;;;;5074361;28;20025;-90
2022/04/19 00:31:31;;;;;;;;;;;;;;;;;;5073166;28;20379;-91
2022/04/19 00:33:57;;;;;;;;;;;;;;;;;;5073317;28;19915;-91
2022/04/19 00:36:23;;;;;;;;;;;;;;;;;;5073171;28;19911;-91
2022/04/19 00:38:48;;;;;;;;;;;;;;;;;;5072180;28;19913;-90
2022/04/19 00:41:13;;;;;;;;;;;;;;;;;;5073146;28;19919;-90
2022/04/19 00:43:38;;;;;;;;;;;;;;;;;;5074113;28;19908;-91
2022/04/19 00:46:03;;;;;;;;;;;;;;;;;;5072998;28;19909;-90
2022/04/19 00:48:29;;;;;;;;;;;;;;;;;;5073192;28;20015;-90
2022/04/19 00:50:55;;;;;;;;;;;;;;;;;;5073439;28;19916;-91
2022/04/19 00:53:20;;;;;;;;;;;;;;;;;;5073006;28;19908;-91
2022/04/19 00:55:45;;;;;;;;;;;;;;;;;;5073122;28;19927;-90
2022/04/19 00:58:12;;;;;;;;;;;;;;;;;;5072744;28;19938;-90
2022/04/19 01:00:37;;;;;;;;;;;;;;;;;;5072877;28;19995;-91
2022/04/19 01:03:03;;;;;;;;;;;;;;;;;;5069582;28;19970;-90
2022/04/19 01:05:28;;;;;;;;;;;;;;;;;;5052864;28;19916;-91
2022/04/19 01:07:53;;;;;;;;;;;;;;;;;;5052854;28;19916;-91
2022/04/19 01:10:18;;;;;;;;;;;;;;;;;;5054137;28;19923;-90
2022/04/19 01:15:27;;;;;;;;;;;;;;;;;;5066079;28;19965;-91
2022/04/19 01:17:52;;;;;;;;;;;;;;;;;;5076380;28;19908;-91
2022/04/19 01:20:17;;;;;;;;;;;;;;;;;;5077306;28;19908;-91
2022/04/19 01:22:42;;;;;;;;;;;;;;;;;;5076348;28;19912;-91
2022/04/19 01:25:08;;;;;;;;;;;;;;;;;;5076212;28;19919;-91
2022/04/19 01:27:33;;;;;;;;;;;;;;;;;;5075176;28;19966;-90
2022/04/19 01:30:02;;;;;;;;;;;;;;;;;;5076094;28;20282;-91
2022/04/19 01:32:27;;;;;;;;;;;;;;;;;;5076134;28;19914;-90
2022/04/19 01:34:53;;;;;;;;;;;;;;;;;;5076118;28;20417;-91
2022/04/19 01:37:18;;;;;;;;;;;;;;;;;;5076024;28;19909;-91
2022/04/19 01:42:27;;;;;;;;;;;;;;;;;;5057086;28;19916;-91
2022/04/19 01:44:53;;;;;;;;;;;;;;;;;;5055821;28;20272;-91
2022/04/19 01:47:18;;;;;;;;;;;;;;;;;;5055812;28;20325;-91
2022/04/19 01:49:43;;;;;;;;;;;;;;;;;;5055879;28;19962;-91
2022/04/19 01:52:08;;;;;;;;;;;;;;;;;;5069195;28;19985;-91
2022/04/19 01:54:34;;;;;;;;;;;;;;;;;;5090531;28;20280;-90
2022/04/19 01:56:59;;;;;;;;;;;;;;;;;;5089143;28;19909;-91
2022/04/19 01:59:24;;;;;;;;;;;;;;;;;;5061219;28;19920;-91
2022/04/19 02:01:52;;;;;;;;;;;;;;;;;;5075657;28;19909;-91
2022/04/19 02:04:18;;;;;;;;;;;;;;;;;;5075480;28;19908;-91
2022/04/19 02:06:43;;;;;;;;;;;;;;;;;;5075528;28;19909;-91
2022/04/19 02:09:08;;;;;;;;;;;;;;;;;;5072966;28;19919;-91
2022/04/19 02:11:33;;;;;;;;;;;;;;;;;;5055400;28;19916;-91
2022/04/19 02:13:59;;;;;;;;;;;;;;;;;;5055215;28;19913;-90
2022/04/19 02:16:24;;;;;;;;;;;;;;;;;;5056314;28;20379;-91
2022/04/19 02:18:49;;;;;;;;;;;;;;;;;;5068402;28;19992;-91
2022/04/19 02:21:14;;;;;;;;;;;;;;;;;;5074740;28;20046;-91
2022/04/19 02:23:39;;;;;;;;;;;;;;;;;;5076261;28;20049;-91
2022/04/19 02:26:04;;;;;;;;;;;;;;;;;;5075068;28;20450;-91
2022/04/19 02:28:29;;;;;;;;;;;;;;;;;;5075508;28;20008;-90
2022/04/19 02:30:55;;;;;;;;;;;;;;;;;;5075244;28;19952;-91
2022/04/19 02:33:20;;;;;;;;;;;;;;;;;;5075145;28;20027;-91
2022/04/19 02:35:45;;;;;;;;;;;;;;;;;;5076227;28;20027;-91
2022/04/19 02:38:11;;;;;;;;;;;;;;;;;;5076043;28;20279;-91
2022/04/19 02:40:36;;;;;;;;;;;;;;;;;;5083961;28;19920;-91
2022/04/19 02:43:01;;;;;;;;;;;;;;;;;;5095156;28;20360;-91
2022/04/19 02:45:26;;;;;;;;;;;;;;;;;;5095140;28;19904;-91
2022/04/19 02:47:51;;;;;;;;;;;;;;;;;;5094817;28;19916;-91
2022/04/19 02:50:16;;;;;;;;;;;;;;;;;;5096076;28;19911;-91
2022/04/19 02:52:41;;;;;;;;;;;;;;;;;;5079086;28;19913;-91
2022/04/19 02:55:07;;;;;;;;;;;;;;;;;;5054613;28;19908;-91
2022/04/19 02:57:33;;;;;;;;;;;;;;;;;;5054425;28;20360;-91
2022/04/19 02:59:58;;;;;;;;;;;;;;;;;;5054455;28;19913;-91
2022/04/19 03:02:23;;;;;;;;;;;;;;;;;;5055622;28;19908;-91
2022/04/19 03:04:48;;;;;;;;;;;;;;;;;;5054976;28;20303;-91
2022/04/19 03:07:14;;;;;;;;;;;;;;;;;;5054496;28;19908;-91
2022/04/19 03:09:39;;;;;;;;;;;;;;;;;;5054427;28;19913;-91
2022/04/19 03:12:04;;;;;;;;;;;;;;;;;;5054245;28;20000;-90
2022/04/19 03:14:29;;;;;;;;;;;;;;;;;;5054501;28;20027;-91
2022/04/19 03:16:54;;;;;;;;;;;;;;;;;;5062161;28;19912;-91
2022/04/19 03:19:19;;;;;;;;;;;;;;;;;;5074116;28;19951;-90
2022/04/19 03:21:44;;;;;;;;;;;;;;;;;;5074323;28;19916;-91
2022/04/19 03:29:37;;;;;;;;;;;;;;;;;;5055591;28;19920;-91
2022/04/19 03:32:02;;;;;;;;;;;;;;;;;;5054009;28;19909;-91
2022/04/19 03:34:27;;;;;;;;;;;;;;;;;;5054540;28;19916;-91
2022/04/19 03:36:53;;;;;;;;;;;;;;;;;;5074028;28;19962;-91
2022/04/19 03:39:18;;;;;;;;;;;;;;;;;;5073998;28;19916;-91
2022/04/19 03:41:43;;;;;;;;;;;;;;;;;;5075174;28;20302;-91
2022/04/19 03:44:08;;;;;;;;;;;;;;;;;;5075216;28;19909;-91
2022/04/19 03:47:07;;;;;;;;;;;;;;;;;;5071079;28;19962;-91
2022/04/19 03:49:19;;;;;;;;;;;;;;;;;;5054969;28;19920;-91
2022/04/19 03:51:44;;;;;;;;;;;;;;;;;;5070654;28;19913;-91
2022/04/19 03:54:09;;;;;;;;;;;;;;;;;;5070726;28;20307;-91
2022/04/19 03:56:34;;;;;;;;;;;;;;;;;;5055083;28;19909;-91
2022/04/19 03:58:59;;;;;;;;;;;;;;;;;;5076549;28;19912;-90
2022/04/19 04:01:24;;;;;;;;;;;;;;;;;;5087786;28;19913;-91
2022/04/19 04:03:49;;;;;;;;;;;;;;;;;;5073104;28;19939;-91
2022/04/19 04:06:16;;;;;;;;;;;;;;;;;;5053803;28;20375;-91
2022/04/19 04:08:41;;;;;;;;;;;;;;;;;;5061319;28;19912;-91
2022/04/19 04:11:07;;;;;;;;;;;;;;;;;;5072941;28;19919;-91
2022/04/19 04:13:32;;;;;;;;;;;;;;;;;;5074107;28;19908;-90
2022/04/19 04:15:57;;;;;;;;;;;;;;;;;;5073874;28;20280;-91
2022/04/19 04:18:22;;;;;;;;;;;;;;;;;;5073877;28;19920;-91
2022/04/19 04:20:47;;;;;;;;;;;;;;;;;;5073642;28;19920;-91
2022/04/19 04:23:12;;;;;;;;;;;;;;;;;;5073442;28;19908;-91
2022/04/19 04:25:37;;;;;;;;;;;;;;;;;;5074492;28;20318;-91
2022/04/19 04:28:02;;;;;;;;;;;;;;;;;;5073285;28;19939;-91
2022/04/19 04:30:27;;;;;;;;;;;;;;;;;;5073520;28;19955;-91
2022/04/19 04:32:53;;;;;;;;;;;;;;;;;;5069855;28;19944;-91
2022/04/19 04:35:18;;;;;;;;;;;;;;;;;;5053722;28;19995;-91
2022/04/19 04:37:43;;;;;;;;;;;;;;;;;;5053622;28;19908;-91
2022/04/19 04:40:08;;;;;;;;;;;;;;;;;;5053671;28;20356;-91
2022/04/19 04:42:33;;;;;;;;;;;;;;;;;;5053657;28;19913;-91
2022/04/19 04:44:58;;;;;;;;;;;;;;;;;;5061579;28;20394;-91
2022/04/19 04:50:27;;;;;;;;;;;;;;;;;;5077330;28;20411;-91
2022/04/19 04:52:53;;;;;;;;;;;;;;;;;;5060839;28;20356;-91
2022/04/19 04:55:18;;;;;;;;;;;;;;;;;;5078606;28;20007;-91
2022/04/19 04:57:43;;;;;;;;;;;;;;;;;;5074400;28;20372;-91
2022/04/19 05:00:08;;;;;;;;;;;;;;;;;;5058335;28;19942;-91
2022/04/19 05:02:33;;;;;;;;;;;;;;;;;;5058148;28;19909;-91
2022/04/19 05:04:59;;;;;;;;;;;;;;;;;;5057876;28;19916;-91
2022/04/19 05:07:24;;;;;;;;;;;;;;;;;;5058091;28;19912;-91
2022/04/19 05:09:49;;;;;;;;;;;;;;;;;;5059289;28;19920;-91
2022/04/19 05:12:14;;;;;;;;;;;;;;;;;;5057623;28;19913;-91
2022/04/19 05:14:39;;;;;;;;;;;;;;;;;;5058121;28;19916;-91
2022/04/19 05:17:04;;;;;;;;;;;;;;;;;;5057945;28;19909;-91
2022/04/19 05:19:29;;;;;;;;;;;;;;;;;;5068343;28;20007;-92
2022/04/19 05:21:54;;;;;;;;;;;;;;;;;;5059140;28;20011;-91
2022/04/19 05:24:20;;;;;;;;;;;;;;;;;;5057663;28;20339;-91
2022/04/19 05:26:45;;;;;;;;;;;;;;;;;;5057774;28;20395;-91
2022/04/19 05:29:10;;;;;;;;;;;;;;;;;;5069136;28;20375;-91
2022/04/19 05:31:35;;;;;;;;;;;;;;;;;;5078087;28;19952;-92
2022/04/19 05:34:00;;;;;;;;;;;;;;;;;;5077636;28;20371;-91
2022/04/19 05:36:25;;;;;;;;;;;;;;;;;;5077669;28;19912;-91
2022/04/19 05:38:52;;;;;;;;;;;;;;;;;;5077545;28;19912;-91
2022/04/19 05:41:17;;;;;;;;;;;;;;;;;;5091930;28;20297;-91
2022/04/19 05:43:42;;;;;;;;;;;;;;;;;;5098486;28;20351;-91
2022/04/19 05:46:07;;;;;;;;;;;;;;;;;;5098174;28;19908;-91
2022/04/19 05:48:32;;;;;;;;;;;;;;;;;;5099715;28;19916;-91
2022/04/19 05:50:58;;;;;;;;;;;;;;;;;;5098424;28;19912;-91
2022/04/19 05:53:23;;;;;;;;;;;;;;;;;;5081710;28;19913;-91
2022/04/19 05:55:48;;;;;;;;;;;;;;;;;;5057019;28;19916;-91
2022/04/19 05:58:13;;;;;;;;;;;;;;;;;;5058864;28;19912;-91
2022/04/19 06:00:38;;;;;;;;;;;;;;;;;;5069019;28;19912;-91
2022/04/19 06:05:47;;;;;;;;;;;;;;;;;;5077707;28;20418;-90
2022/04/19 06:08:12;;;;;;;;;;;;;;;;;;5075349;28;19908;-90
2022/04/19 06:10:37;;;;;;;;;;;;;;;;;;5055289;28;19916;-90
2022/04/19 06:13:02;;;;;;;;;;;;;;;;;;5055408;28;19916;-90
2022/04/19 06:15:28;;;;;;;;;;;;;;;;;;5055118;28;19920;-91
2022/04/19 06:17:53;;;;;;;;;;;;;;;;;;5055168;28;19912;-91
2022/04/19 06:20:18;;;;;;;;;;;;;;;;;;5071766;28;20356;-91
2022/04/19 06:22:44;;;;;;;;;;;;;;;;;;5072317;28;19908;-91
2022/04/19 06:25:09;;;;;;;;;;;;;;;;;;5062588;28;19913;-91
2022/04/19 06:27:34;;;;;;;;;;;;;;;;;;5075049;28;19919;-90
2022/04/19 06:29:59;;;;;;;;;;;;;;;;;;5074910;28;19909;-91
2022/04/19 06:32:25;;;;;;;;;;;;;;;;;;5070905;28;19916;-91
2022/04/19 06:34:50;;;;;;;;;;;;;;;;;;5055897;28;19909;-90
2022/04/19 06:37:15;;;;;;;;;;;;;;;;;;5055833;28;19999;-90
2022/04/19 06:39:41;;;;;;;;;;;;;;;;;;5055856;28;20360;-91
2022/04/19 06:42:06;;;;;;;;;;;;;;;;;;5054439;28;20003;-91
2022/04/19 06:44:31;;;;;;;;;;;;;;;;;;5072900;28;20356;-91
2022/04/19 06:46:56;;;;;;;;;;;;;;;;;;5081800;28;19923;-91
2022/04/19 06:49:21;;;;;;;;;;;;;;;;;;5076023;28;19958;-91
2022/04/19 06:51:48;;;;;;;;;;;;;;;;;;5074604;28;19919;-91
2022/04/19 06:54:13;;;;;;;;;;;;;;;;;;5074410;28;19908;-90
2022/04/19 06:56:38;;;;;;;;;;;;;;;;;;5075099;28;20004;-91
2022/04/19 06:59:03;;;;;;;;;;;;;;;;;;5068155;28;20023;-91
2022/04/19 07:01:29;;;;;;;;;;;;;;;;;;5054380;28;19909;-92
2022/04/19 07:03:54;;;;;;;;;;;;;;;;;;5056457;28;19978;-91
2022/04/19 07:06:19;;;;;;;;;;;;;;;;;;5071899;28;19943;-91
2022/04/19 07:08:44;;;;;;;;;;;;;;;;;;5066691;28;20369;-93
2022/04/19 07:11:11;;;;;;;;;;;;;;;;;;5055417;28;19917;-93
2022/04/19 07:13:37;;;;;;;;;;;;;;;;;;5054025;28;19913;-93
2022/04/19 07:16:02;;;;;;;;;;;;;;;;;;5068987;28;19916;-93
2022/04/19 07:18:28;;;;;;;;;;;;;;;;;;5074028;28;19913;-93
2022/04/19 07:26:40;;;;;;;;;;;;;;;;;;5074481;28;19920;-92
2022/04/19 07:29:05;;;;;;;;;;;;;;;;;;5073734;28;19916;-93
2022/04/19 07:31:31;;;;;;;;;;;;;;;;;;5073266;28;19908;-93
2022/04/19 07:33:56;;;;;;;;;;;;;;;;;;5073945;28;19912;-92
2022/04/19 07:36:21;;;;;;;;;;;;;;;;;;5075284;28;19909;-93
2022/04/19 07:38:46;;;;;;;;;;;;;;;;;;5078294;28;19920;-94
2022/04/19 07:41:12;;;;;;;;;;;;;;;;;;5084524;28;20369;-93
2022/04/19 07:43:37;;;;;;;;;;;;;;;;;;5073688;28;19955;-93
2022/04/19 07:46:04;;;;;;;;;;;;;;;;;;5073734;28;19908;-93
2022/04/19 07:48:29;;;;;;;;;;;;;;;;;;5074346;28;20383;-91
2022/04/19 07:50:55;;;;;;;;;;;;;;;;;;5072589;28;19912;-90
2022/04/19 07:53:20;;;;;;;;;;;;;;;;;;5073180;28;20003;-91
2022/04/19 07:55:45;;;;;;;;;;;;;;;;;;5073189;28;19913;-91
2022/04/19 07:58:10;;;;;;;;;;;;;;;;;;5072747;28;19920;-91
2022/04/19 08:00:36;;;;;;;;;;;;;;;;;;5073164;28;20015;-92
2022/04/19 08:03:01;;;;;;;;;;;;;;;;;;5073224;28;19919;-91
2022/04/19 08:05:26;;;;;;;;;;;;;;;;;;5074277;28;20287;-91
2022/04/19 08:07:51;;;;;;;;;;;;;;;;;;5072737;28;19908;-91
2022/04/19 08:10:16;;;;;;;;;;;;;;;;;;5074286;28;19934;-91
2022/04/19 08:12:42;;;;;;;;;;;;;;;;;;5072828;28;19909;-91
2022/04/19 08:15:08;;;;;;;;;;;;;;;;;;5070203;28;20295;-91
2022/04/19 08:17:33;;;;;;;;;;;;;;;;;;5069921;28;19909;-91
2022/04/19 08:19:58;;;;;;;;;;;;;;;;;;5075730;28;20253;-91
2022/04/19 08:22:23;;;;;;;;;;;;;;;;;;5078201;28;20006;-91
2022/04/19 08:24:48;;;;;;;;;;;;;;;;;;5078534;28;20061;-91
2022/04/19 08:27:13;;;;;;;;;;;;;;;;;;5077998;28;20049;-91
2022/04/19 08:29:38;;;;;;;;;;;;;;;;;;5076669;28;20070;-91
2022/04/19 08:32:03;;;;;;;;;;;;;;;;;;5076885;28;20443;-91
2022/04/19 08:34:28;;;;;;;;;;;;;;;;;;5076878;28;20022;-91
2022/04/19 08:36:54;;;;;;;;;;;;;;;;;;5060080;28;19913;-91
2022/04/19 08:39:19;;;;;;;;;;;;;;;;;;5057853;28;20011;-91
2022/04/19 08:41:44;;;;;;;;;;;;;;;;;;5090156;28;19913;-91
2022/04/19 08:44:09;;;;;;;;;;;;;;;;;;5056602;28;20003;-91
2022/04/19 08:46:34;;;;;;;;;;;;;;;;;;5067160;28;20261;-91
2022/04/19 08:48:59;;;;;;;;;;;;;;;;;;5076588;28;19908;-91
2022/04/19 08:51:26;;;;;;;;;;;;;;;;;;5076527;28;19913;-91
2022/04/19 08:59:18;;;;;;;;;;;;;;;;;;5057407;28;19923;-91
2022/04/19 09:01:43;;;;;;;;;;;;;;;;;;5057061;28;19991;-91
2022/04/19 09:04:08;;;;;;;;;;;;;;;;;;5056131;28;20015;-91
2022/04/19 09:06:33;;;;;;;;;;;;;;;;;;5056185;28;19942;-91
2022/04/19 09:08:59;;;;;;;;;;;;;;;;;;5056971;28;19994;-91
2022/04/19 09:11:24;;;;;;;;;;;;;;;;;;5072791;28;20269;-91
2022/04/19 09:13:49;;;;;;;;;;;;;;;;;;5070414;28;19908;-91
2022/04/19 09:16:14;;;;;;;;;;;;;;;;;;5072547;28;19917;-91
2022/04/19 09:18:40;;;;;;;;;;;;;;;;;;5058934;28;19967;-91
2022/04/19 09:21:05;;;;;;;;;;;;;;;;;;5089489;28;19916;-91
2022/04/19 09:23:30;;;;;;;;;;;;;;;;;;5090823;28;19919;-91
2022/04/19 09:25:56;;;;;;;;;;;;;;;;;;5075844;28;19934;-91
2022/04/19 09:28:21;;;;;;;;;;;;;;;;;;5075277;28;19913;-90
2022/04/19 09:30:48;;;;;;;;;;;;;;;;;;5074317;28;19961;-91
2022/04/19 09:33:14;;;;;;;;;;;;;;;;;;5075502;28;19913;-90
2022/04/19 09:35:39;;;;;;;;;;;;;;;;;;5075665;28;20379;-90
2022/04/19 09:38:04;;;;;;;;;;;;;;;;;;5075509;28;19944;-91
2022/04/19 09:40:30;;;;;;;;;;;;;;;;;;5071432;28;20024;-90
2022/04/19 09:42:55;;;;;;;;;;;;;;;;;;5055256;28;19913;-90
2022/04/19 09:45:20;;;;;;;;;;;;;;;;;;5055168;28;19913;-90
2022/04/19 09:47:45;;;;;;;;;;;;;;;;;;5055157;28;19921;-91
2022/04/19 09:50:10;;;;;;;;;;;;;;;;;;5055409;28;19920;-91
2022/04/19 09:52:38;;;;;;;;;;;;;;;;;;5066529;28;19928;-91
2022/04/19 09:55:03;;;;;;;;;;;;;;;;;;5076339;28;19908;-90
2022/04/19 09:57:28;;;;;;;;;;;;;;;;;;5076366;28;19916;-91
2022/04/19 09:59:53;;;;;;;;;;;;;;;;;;5075407;28;19913;-90
2022/04/19 10:10:30;;;;;;;;;;;;;;;;;;5076051;28;20382;-90
2022/04/19 10:12:55;;;;;;;;;;;;;;;;;;5074892;28;20010;-91
2022/04/19 10:15:20;;;;;;;;;;;;;;;;;;5078975;28;19990;-91
2022/04/19 10:17:45;;;;;;;;;;;;;;;;;;5095145;28;20007;-91
2022/04/19 10:20:10;;;;;;;;;;;;;;;;;;5094823;28;20008;-91
2022/04/19 10:22:35;;;;;;;;;;;;;;;;;;5094943;28;20007;-90
2022/04/19 10:25:03;;;;;;;;;;;;;;;;;;5095026;28;20459;-90
2022/04/19 10:27:28;;;;;;;;;;;;;;;;;;5081687;28;19913;-90
2022/04/19 10:29:53;;;;;;;;;;;;;;;;;;5054294;28;20015;-90
2022/04/19 10:32:18;;;;;;;;;;;;;;;;;;5054423;28;20372;-90
2022/04/19 10:34:44;;;;;;;;;;;;;;;;;;5054501;28;19912;-91
2022/04/19 10:37:11;;;;;;;;;;;;;;;;;;5054419;28;19908;-90
2022/04/19 10:39:36;;;;;;;;;;;;;;;;;;5061756;28;20318;-90
2022/04/19 10:42:02;;;;;;;;;;;;;;;;;;5070444;28;19912;-90
2022/04/19 10:44:28;;;;;;;;;;;;;;;;;;5054386;28;20279;-90
2022/04/19 10:46:53;;;;;;;;;;;;;;;;;;5054776;28;19927;-91
2022/04/19 10:49:19;;;;;;;;;;;;;;;;;;5073892;28;19956;-90
2022/04/19 10:51:44;;;;;;;;;;;;;;;;;;5072111;28;19956;-90
2022/04/19 10:54:09;;;;;;;;;;;;;;;;;;5073755;28;20011;-90
2022/04/19 10:56:34;;;;;;;;;;;;;;;;;;5070766;28;19991;-90
2022/04/19 10:58:59;;;;;;;;;;;;;;;;;;5073735;28;20338;-90
2022/04/19 11:01:25;;;;;;;;;;;;;;;;;;5073930;28;20007;-90
2022/04/19 11:03:50;;;;;;;;;;;;;;;;;;5073599;28;20406;-91
2022/04/19 11:06:16;;;;;;;;;;;;;;;;;;5074873;28;20018;-91
2022/04/19 11:08:42;;;;;;;;;;;;;;;;;;5074967;28;19915;-91
2022/04/19 11:11:07;;;;;;;;;;;;;;;;;;5074930;28;19912;-90
2022/04/19 11:13:32;;;;;;;;;;;;;;;;;;5073184;28;19966;-91
2022/04/19 11:15:57;;;;;;;;;;;;;;;;;;5063893;28;19967;-90
2022/04/19 11:18:22;;;;;;;;;;;;;;;;;;5086959;28;19913;-90
2022/04/19 11:20:47;;;;;;;;;;;;;;;;;;5071209;28;19915;-90
2022/04/19 11:23:13;;;;;;;;;;;;;;;;;;5073212;28;19908;-90
2022/04/19 11:25:39;;;;;;;;;;;;;;;;;;5073075;28;20356;-90
2022/04/19 11:28:08;;;;;;;;;;;;;;;;;;5072844;28;19919;-90
2022/04/19 11:30:33;;;;;;;;;;;;;;;;;;5069596;28;19917;-90
2022/04/19 11:32:59;;;;;;;;;;;;;;;;;;5086831;28;19909;-90
2022/04/19 11:35:24;;;;;;;;;;;;;;;;;;5106072;28;19908;-90
2022/04/19 11:37:49;;;;;;;;;;;;;;;;;;5073156;28;19920;-90
2022/04/19 11:48:26;;;;;;;;;;;;;;;;;;5054082;28;19923;-90
2022/04/19 11:50:52;;;;;;;;;;;;;;;;;;5054310;28;20003;-91
2022/04/19 11:53:19;;;;;;;;;;;;;;;;;;5053570;28;20352;-90
2022/04/19 11:55:44;;;;;;;;;;;;;;;;;;5068959;28;19912;-90
2022/04/19 11:58:10;;;;;;;;;;;;;;;;;;5073846;28;19916;-90
2022/04/19 12:00:35;;;;;;;;;;;;;;;;;;5072715;28;19919;-91
2022/04/19 12:03:02;;;;;;;;;;;;;;;;;;5069865;28;19948;-90
2022/04/19 12:05:27;;;;;;;;;;;;;;;;;;5068921;28;19920;-89
2022/04/19 12:07:53;;;;;;;;;;;;;;;;;;5072750;28;19912;-90
2022/04/19 12:10:18;;;;;;;;;;;;;;;;;;5072806;28;19954;-91
2022/04/19 12:12:43;;;;;;;;;;;;;;;;;;5068828;28;19913;-90
2022/04/19 12:15:08;;;;;;;;;;;;;;;;;;5052436;28;20271;-90
2022/04/19 12:17:33;;;;;;;;;;;;;;;;;;5060321;28;19958;-90
2022/04/19 12:19:58;;;;;;;;;;;;;;;;;;5053619;28;19952;-91
2022/04/19 12:22:23;;;;;;;;;;;;;;;;;;5070459;28;19909;-90
2022/04/19 12:24:48;;;;;;;;;;;;;;;;;;5060131;28;19912;-90
2022/04/19 12:27:14;;;;;;;;;;;;;;;;;;5073746;28;19913;-90
2022/04/19 12:29:39;;;;;;;;;;;;;;;;;;5091105;28;19926;-90
2022/04/19 12:32:04;;;;;;;;;;;;;;;;;;5079996;28;19969;-90
2022/04/19 12:34:29;;;;;;;;;;;;;;;;;;5091190;28;20390;-90
2022/04/19 12:36:54;;;;;;;;;;;;;;;;;;5075562;28;19920;-89
2022/04/19 12:39:19;;;;;;;;;;;;;;;;;;5052411;28;19951;-89
2022/04/19 12:41:44;;;;;;;;;;;;;;;;;;5067537;28;19919;-88
2022/04/19 12:44:10;;;;;;;;;;;;;;;;;;5071839;28;19915;-89
2022/04/19 12:46:35;;;;;;;;;;;;;;;;;;5071571;28;19919;-89
2022/04/19 12:49:01;;;;;;;;;;;;;;;;;;5071886;28;19952;-89
2022/04/19 12:51:26;;;;;;;;;;;;;;;;;;5071674;28;19974;-88
2022/04/19 12:53:51;;;;;;;;;;;;;;;;;;5080252;28;20359;-89
2022/04/19 12:56:16;;;;;;;;;;;;;;;;;;5091936;28;19908;-89
2022/04/19 12:58:42;;;;;;;;;;;;;;;;;;5093121;28;19912;-89
2022/04/19 13:01:07;;;;;;;;;;;;;;;;;;5091682;28;19935;-89
2022/04/19 13:03:32;;;;;;;;;;;;;;;;;;5071427;28;19942;-89
2022/04/19 13:14:09;;;;;;;;;;;;;;;;;;5076711;28;19954;-89
2022/04/19 13:16:34;;;;;;;;;;;;;;;;;;5075136;28;20365;-89
2022/04/19 13:18:59;;;;;;;;;;;;;;;;;;5070568;28;19917;-88
2022/04/19 13:21:26;;;;;;;;;;;;;;;;;;5055791;28;20012;-89
2022/04/19 13:23:51;;;;;;;;;;;;;;;;;;5073736;28;19912;-89
2022/04/19 13:26:16;;;;;;;;;;;;;;;;;;5075028;28;19958;-88
2022/04/19 13:28:41;;;;;;;;;;;;;;;;;;5074100;28;19982;-88
2022/04/19 13:31:06;;;;;;;;;;;;;;;;;;5070937;28;19925;-88
2022/04/19 13:33:31;;;;;;;;;;;;;;;;;;5054931;28;20272;-88
2022/04/19 13:35:57;;;;;;;;;;;;;;;;;;5054852;28;19909;-88
2022/04/19 13:38:25;;;;;;;;;;;;;;;;;;5054783;28;19923;-88
2022/04/19 13:40:50;;;;;;;;;;;;;;;;;;5066026;28;20336;-88
2022/04/19 13:43:15;;;;;;;;;;;;;;;;;;5074685;28;20391;-88
2022/04/19 13:45:40;;;;;;;;;;;;;;;;;;5073647;28;19917;-89
2022/04/19 13:48:05;;;;;;;;;;;;;;;;;;5074579;28;19917;-89
2022/04/19 13:50:30;;;;;;;;;;;;;;;;;;5071157;28;19935;-88
2022/04/19 13:52:55;;;;;;;;;;;;;;;;;;5057680;28;20406;-89
2022/04/19 13:55:21;;;;;;;;;;;;;;;;;;5074597;28;20299;-89
2022/04/19 13:57:47;;;;;;;;;;;;;;;;;;5074602;28;19912;-88
2022/04/19 14:00:15;;;;;;;;;;;;;;;;;;5074376;28;20325;-87
2022/04/19 14:02:40;;;;;;;;;;;;;;;;;;5074234;28;19909;-89
2022/04/19 14:05:05;;;;;;;;;;;;;;;;;;5073233;28;19920;-89
2022/04/19 14:07:30;;;;;;;;;;;;;;;;;;5075491;28;19913;-89
2022/04/19 14:09:55;;;;;;;;;;;;;;;;;;5074273;28;19913;-88
2022/04/19 14:12:21;;;;;;;;;;;;;;;;;;5075528;28;19912;-89
2022/04/19 14:14:46;;;;;;;;;;;;;;;;;;5074439;28;20264;-88
2022/04/19 14:17:11;;;;;;;;;;;;;;;;;;5071249;28;19909;-88
2022/04/19 14:19:36;;;;;;;;;;;;;;;;;;5073022;28;19917;-89
2022/04/19 14:22:01;;;;;;;;;;;;;;;;;;5074021;28;19957;-90
2022/04/19 14:24:27;;;;;;;;;;;;;;;;;;5074407;28;19913;-84
2022/04/19 14:26:52;;;;;;;;;;;;;;;;;;5075352;28;20041;-89
2022/04/19 14:34:45;;;;;;;;;;;;;;;;;;5074808;28;19957;-84
2022/04/19 14:37:10;;;;;;;;;;;;;;;;;;5073483;28;20010;-84
2022/04/19 14:39:35;;;;;;;;;;;;;;;;;;5074755;28;19966;-84
2022/04/19 14:42:02;;;;;;;;;;;;;;;;;;5064823;28;19995;-84
2022/04/19 14:44:28;;;;;;;;;;;;;;;;;;5053407;28;19956;-84
2022/04/19 14:46:55;;;;;;;;;;;;;;;;;;5066088;28;19948;-84
2022/04/19 14:49:20;;;;;;;;;;;;;;;;;;5073066;28;20372;-84
2022/04/19 14:54:28;;;;;;;;;;;;;;;;;;5063643;28;19920;-84
2022/04/19 14:56:54;;;;;;;;;;;;;;;;;;5064209;28;19912;-84
2022/04/19 14:59:19;;;;;;;;;;;;;;;;;;5072303;28;19916;-84
2022/04/19 15:01:44;;;;;;;;;;;;;;;;;;5074184;28;20299;-84
2022/04/19 15:04:09;;;;;;;;;;;;;;;;;;5068371;28;19913;-84
2022/04/19 15:06:34;;;;;;;;;;;;;;;;;;5054214;28;19909;-84
2022/04/19 15:08:59;;;;;;;;;;;;;;;;;;5063764;28;19935;-84
2022/04/19 15:11:24;;;;;;;;;;;;;;;;;;5072526;28;19952;-84
2022/04/19 15:13:51;;;;;;;;;;;;;;;;;;5072862;28;20261;-84
2022/04/19 15:16:16;;;;;;;;;;;;;;;;;;5068513;28;19963;-84
2022/04/19 15:18:42;;;;;;;;;;;;;;;;;;5053878;28;19917;-84
2022/04/19 15:21:07;;;;;;;;;;;;;;;;;;5054481;28;19978;-84
2022/04/19 15:23:32;;;;;;;;;;;;;;;;;;5069327;28;19935;-84
2022/04/19 15:25:57;;;;;;;;;;;;;;;;;;5067978;28;19912;-84
2022/04/19 15:28:22;;;;;;;;;;;;;;;;;;5070871;28;19913;-84
2022/04/19 15:30:47;;;;;;;;;;;;;;;;;;5068723;28;19958;-84
2022/04/19 15:33:12;;;;;;;;;;;;;;;;;;5068100;28;19938;-84
2022/04/19 15:35:38;;;;;;;;;;;;;;;;;;5071570;28;19920;-84
2022/04/19 15:38:03;;;;;;;;;;;;;;;;;;5073170;28;19966;-84
2022/04/19 15:40:28;;;;;;;;;;;;;;;;;;5073289;28;19917;-84
2022/04/19 15:42:53;;;;;;;;;;;;;;;;;;5061576;28;19963;-84
2022/04/19 15:45:18;;;;;;;;;;;;;;;;;;5087160;28;19930;-84
2022/04/19 15:47:45;;;;;;;;;;;;;;;;;;5071452;28;19923;-84
2022/04/19 15:50:11;;;;;;;;;;;;;;;;;;5071769;28;19959;-84
2022/04/19 15:52:37;;;;;;;;;;;;;;;;;;5071710;28;19912;-84
2022/04/19 15:55:02;;;;;;;;;;;;;;;;;;5067271;28;20335;-84
2022/04/19 15:57:27;;;;;;;;;;;;;;;;;;5053288;28;19935;-84
2022/04/19 15:59:52;;;;;;;;;;;;;;;;;;5064921;28;19939;-84
2022/04/19 16:02:17;;;;;;;;;;;;;;;;;;5072014;28;20288;-84
2022/04/19 16:04:42;;;;;;;;;;;;;;;;;;5067699;28;19916;-84
2022/04/19 16:07:07;;;;;;;;;;;;;;;;;;5052519;28;19958;-84
2022/04/19 16:09:33;;;;;;;;;;;;;;;;;;5062479;28;19939;-84
2022/04/19 16:11:58;;;;;;;;;;;;;;;;;;5071826;28;20397;-84
2022/04/19 16:14:23;;;;;;;;;;;;;;;;;;5069815;28;20026;-84
2022/04/19 16:25:00;;;;;;;;;;;;;;;;;;5069460;28;20029;-84
2022/04/19 16:27:25;;;;;;;;;;;;;;;;;;5067584;28;20394;-85
2022/04/19 16:29:50;;;;;;;;;;;;;;;;;;5051941;28;20011;-84
2022/04/19 16:32:15;;;;;;;;;;;;;;;;;;5059293;28;19919;-85
2022/04/19 16:34:40;;;;;;;;;;;;;;;;;;5067215;28;20394;-85
2022/04/19 16:37:06;;;;;;;;;;;;;;;;;;5069760;28;19913;-85
2022/04/19 16:39:31;;;;;;;;;;;;;;;;;;5072376;28;20333;-85
2022/04/19 16:41:56;;;;;;;;;;;;;;;;;;5077900;28;19948;-85
2022/04/19 16:44:21;;;;;;;;;;;;;;;;;;5075110;28;20322;-84
2022/04/19 16:46:46;;;;;;;;;;;;;;;;;;5075498;28;19960;-85
2022/04/19 16:49:11;;;;;;;;;;;;;;;;;;5070138;28;19913;-85
2022/04/19 16:51:36;;;;;;;;;;;;;;;;;;5055690;28;19909;-84
2022/04/19 16:54:01;;;;;;;;;;;;;;;;;;5056983;28;19909;-85
2022/04/19 16:56:27;;;;;;;;;;;;;;;;;;5056854;28;20395;-85
2022/04/19 16:58:52;;;;;;;;;;;;;;;;;;5066801;28;20007;-84
2022/04/19 17:01:17;;;;;;;;;;;;;;;;;;5074309;28;19913;-85
2022/04/19 17:03:58;;;;;;;;;;;;;;;;;;5074457;28;19912;-85
2022/04/19 17:06:23;;;;;;;;;;;;;;;;;;5071278;28;19999;-85
2022/04/19 17:08:48;;;;;;;;;;;;;;;;;;5073216;28;20002;-85
2022/04/19 17:11:13;;;;;;;;;;;;;;;;;;5075976;28;19944;-85
2022/04/19 17:13:38;;;;;;;;;;;;;;;;;;5074120;28;20002;-85
2022/04/19 17:16:03;;;;;;;;;;;;;;;;;;5073944;28;19913;-85
2022/04/19 17:18:29;;;;;;;;;;;;;;;;;;5075937;28;19908;-84
2022/04/19 17:20:54;;;;;;;;;;;;;;;;;;5064886;28;19920;-85
2022/04/19 17:23:21;;;;;;;;;;;;;;;;;;5073986;28;20406;-85
2022/04/19 17:25:46;;;;;;;;;;;;;;;;;;5074897;28;20475;-85
2022/04/19 17:28:11;;;;;;;;;;;;;;;;;;5073717;28;20003;-85
2022/04/19 17:30:36;;;;;;;;;;;;;;;;;;5075589;28;19919;-85
2022/04/19 17:33:01;;;;;;;;;;;;;;;;;;5076244;28;19959;-85
2022/04/19 17:35:26;;;;;;;;;;;;;;;;;;5075853;28;19996;-85
2022/04/19 17:37:52;;;;;;;;;;;;;;;;;;5070788;28;19913;-85
2022/04/19 17:40:17;;;;;;;;;;;;;;;;;;5071935;28;20382;-85